createdAt,value
2019-03-30T00:02:12.443Z,49.40
2019-03-30T00:04:46.068Z,50.08
2019-03-30T00:07:19.737Z,49.40
2019-03-30T00:09:53.365Z,47.78
2019-03-30T00:12:26.991Z,46.77
2019-03-30T00:15:00.661Z,47.45
2019-03-30T00:17:35.043Z,47.80
2019-03-30T00:20:08.866Z,46.05
2019-03-30T00:22:42.505Z,46.90
2019-03-30T00:25:16.233Z,36.30
2019-03-30T00:27:49.908Z,39.35
2019-03-30T00:30:23.562Z,42.38
2019-03-30T00:32:57.040Z,47.25
2019-03-30T00:35:30.586Z,44.27
2019-03-30T00:38:04.097Z,42.23
2019-03-30T00:40:39.600Z,42.00
2019-03-30T00:43:32.503Z,45.17
2019-03-30T00:46:19.313Z,60.05
2019-03-30T00:49:10.075Z,53.40
2019-03-30T00:51:56.329Z,42.15
2019-03-30T00:54:44.317Z,42.13
2019-03-30T00:57:31.079Z,43.42
2019-03-30T01:00:18.298Z,41.88
2019-03-30T01:02:53.957Z,41.68
2019-03-30T01:05:29.418Z,46.08
2019-03-30T01:08:04.857Z,45.90
2019-03-30T01:10:40.365Z,49.13
2019-03-30T01:13:27.307Z,47.67
2019-03-30T01:16:21.200Z,48.10
2019-03-30T01:19:09.119Z,53.95
2019-03-30T01:21:45.718Z,55.83
2019-03-30T01:24:21.342Z,57.40
2019-03-30T01:27:08.367Z,49.90
2019-03-30T01:30:03.769Z,52.60
2019-03-30T01:32:39.365Z,68.85
2019-03-30T01:35:15.096Z,70.75
2019-03-30T01:37:50.294Z,64.07
2019-03-30T01:40:27.376Z,65.37
2019-03-30T01:43:14.457Z,57.85
2019-03-30T01:46:02.104Z,55.97
2019-03-30T01:48:50.605Z,50.03
2019-03-30T01:51:44.013Z,76.03
2019-03-30T01:54:31.357Z,123.38
2019-03-30T01:57:23.935Z,149.40
2019-03-30T02:00:12.661Z,138.80
2019-03-30T02:02:48.182Z,99.65
2019-03-30T02:05:41.126Z,98.92
2019-03-30T02:08:36.364Z,85.60
2019-03-30T02:11:14.096Z,75.30
2019-03-30T02:14:00.829Z,67.30
2019-03-30T02:16:47.809Z,65.72
2019-03-30T02:19:34.576Z,68.62
2019-03-30T02:22:08.165Z,70.20
2019-03-30T02:24:41.794Z,112.53
2019-03-30T02:27:15.466Z,64.62
2019-03-30T02:29:49.203Z,60.80
2019-03-30T02:32:22.792Z,69.47
2019-03-30T02:34:56.553Z,74.30
2019-03-30T02:37:30.168Z,61.28
2019-03-30T02:40:03.821Z,46.63
2019-03-30T02:42:37.449Z,48.33
2019-03-30T02:45:11.151Z,47.05
2019-03-30T02:47:44.905Z,52.33
2019-03-30T02:50:18.531Z,60.23
2019-03-30T02:52:52.451Z,46.37
2019-03-30T02:55:26.243Z,50.52
2019-03-30T02:57:59.924Z,41.35
2019-03-30T03:00:33.598Z,43.60
2019-03-30T03:03:07.402Z,47.93
2019-03-30T03:05:41.052Z,49.83
2019-03-30T03:08:14.823Z,47.70
2019-03-30T03:10:49.527Z,50.07
2019-03-30T03:13:23.171Z,52.67
2019-03-30T03:15:56.786Z,57.23
2019-03-30T03:18:30.397Z,58.03
2019-03-30T03:21:07.777Z,64.10
2019-03-30T03:23:39.360Z,62.80
2019-03-30T03:26:12.961Z,67.03
2019-03-30T03:28:46.641Z,66.83
2019-03-30T03:31:20.315Z,69.23
2019-03-30T03:33:53.881Z,82.97
2019-03-30T03:36:28.359Z,91.28
2019-03-30T03:39:02.030Z,85.90
2019-03-30T03:41:36.861Z,85.53
2019-03-30T03:44:10.511Z,72.20
2019-03-30T03:46:44.193Z,75.75
2019-03-30T03:49:17.872Z,75.30
2019-03-30T03:51:51.785Z,70.70
2019-03-30T03:54:25.627Z,77.93
2019-03-30T03:57:01.346Z,84.27
2019-03-30T03:59:37.464Z,71.20
2019-03-30T04:02:12.385Z,77.17
2019-03-30T04:04:47.930Z,79.80
2019-03-30T04:07:23.352Z,69.77
2019-03-30T04:10:00.907Z,56.97
2019-03-30T04:12:37.664Z,55.37
2019-03-30T04:15:14.982Z,47.80
2019-03-30T04:17:48.755Z,45.67
2019-03-30T04:20:25.346Z,42.50
2019-03-30T04:22:58.945Z,43.15
2019-03-30T04:25:32.563Z,47.60
2019-03-30T04:28:06.309Z,57.27
2019-03-30T04:30:40.031Z,74.33
2019-03-30T04:33:13.685Z,71.23
2019-03-30T04:35:47.402Z,54.43
2019-03-30T04:38:20.979Z,95.23
2019-03-30T04:40:54.640Z,112.97
2019-03-30T04:43:28.394Z,105.20
2019-03-30T04:46:02.066Z,85.40
2019-03-30T04:48:35.750Z,67.07
2019-03-30T04:51:09.374Z,76.27
2019-03-30T04:53:43.100Z,63.37
2019-03-30T04:56:16.697Z,68.73
2019-03-30T04:58:50.501Z,67.17
2019-03-30T05:01:24.474Z,66.33
2019-03-30T05:03:58.298Z,62.20
2019-03-30T05:06:31.996Z,53.13
2019-03-30T05:09:07.092Z,61.10
2019-03-30T05:11:40.827Z,60.33
2019-03-30T05:14:14.571Z,69.07
2019-03-30T05:16:48.307Z,77.80
2019-03-30T05:19:24.113Z,96.73
2019-03-30T05:22:11.121Z,87.50
2019-03-30T05:24:33.163Z,104.77
2019-03-30T05:27:06.872Z,112.23
2019-03-30T05:29:40.950Z,107.60
2019-03-30T05:32:14.713Z,110.20
2019-03-30T05:34:48.593Z,115.07
2019-03-30T05:37:22.205Z,109.03
2019-03-30T05:39:55.852Z,120.70
2019-03-30T05:42:29.584Z,114.10
2019-03-30T05:45:03.287Z,117.23
2019-03-30T05:47:36.908Z,114.28
2019-03-30T05:50:11.564Z,115.90
2019-03-30T05:52:45.282Z,110.27
2019-03-30T05:55:18.992Z,111.60
2019-03-30T05:57:52.613Z,102.47
2019-03-30T06:00:26.442Z,98.42
2019-03-30T06:03:02.894Z,97.67
2019-03-30T06:05:36.797Z,105.33
2019-03-30T06:08:10.484Z,91.67
2019-03-30T06:10:44.182Z,91.40
2019-03-30T06:13:17.866Z,90.60
2019-03-30T06:15:51.504Z,85.30
2019-03-30T06:18:25.164Z,81.90
2019-03-30T06:20:58.859Z,78.70
2019-03-30T06:23:32.602Z,70.60
2019-03-30T06:26:07.398Z,71.42
2019-03-30T06:28:41.136Z,77.62
2019-03-30T06:31:14.986Z,79.42
2019-03-30T06:33:48.753Z,78.17
2019-03-30T06:36:22.493Z,72.90
2019-03-30T06:38:56.134Z,68.42
2019-03-30T06:41:29.745Z,80.65
2019-03-30T06:44:03.425Z,64.87
2019-03-30T06:46:39.539Z,61.90
2019-03-30T06:49:12.739Z,65.92
2019-03-30T06:51:46.729Z,71.05
2019-03-30T06:54:20.389Z,74.77
2019-03-30T06:56:54.152Z,81.08
2019-03-30T06:59:27.832Z,76.25
2019-03-30T07:02:01.690Z,72.13
2019-03-30T07:04:35.331Z,72.22
2019-03-30T07:07:10.998Z,67.90
2019-03-30T07:09:48.324Z,77.30
2019-03-30T07:12:25.544Z,60.52
2019-03-30T07:15:02.178Z,62.95
2019-03-30T07:17:47.003Z,51.92
2019-03-30T07:20:31.495Z,57.95
2019-03-30T07:23:11.895Z,54.77
2019-03-30T07:25:41.076Z,56.58
2019-03-30T07:28:32.377Z,54.88
2019-03-30T07:31:23.839Z,51.02
2019-03-30T07:33:57.503Z,51.60
2019-03-30T07:36:31.376Z,45.52
2019-03-30T07:39:05.828Z,47.33
2019-03-30T07:41:42.308Z,46.25
2019-03-30T07:44:18.757Z,45.58
2019-03-30T07:46:53.038Z,57.78
2019-03-30T07:49:26.898Z,43.80
2019-03-30T07:52:00.880Z,46.33
2019-03-30T07:54:35.243Z,44.10
2019-03-30T07:57:16.902Z,41.05
2019-03-30T08:00:04.271Z,36.23
2019-03-30T08:02:56.328Z,41.30
2019-03-30T08:05:30.294Z,39.40
2019-03-30T08:08:04.630Z,36.75
2019-03-30T08:10:39.032Z,34.10
2019-03-30T08:13:13.158Z,23.12
2019-03-30T08:15:47.543Z,32.00
2019-03-30T08:18:21.499Z,38.73
2019-03-30T08:20:55.176Z,41.35
2019-03-30T08:23:39.736Z,46.53
2019-03-30T08:26:04.396Z,46.20
2019-03-30T08:28:38.105Z,45.95
2019-03-30T08:31:12.036Z,45.78
2019-03-30T08:33:45.825Z,58.10
2019-03-30T08:36:19.751Z,40.25
2019-03-30T08:38:53.394Z,50.80
2019-03-30T08:41:27.169Z,40.00
2019-03-30T08:44:00.900Z,38.20
2019-03-30T08:46:34.547Z,44.60
2019-03-30T08:49:09.456Z,33.05
2019-03-30T08:51:43.255Z,34.25
2019-03-30T08:54:16.998Z,33.55
2019-03-30T08:56:50.683Z,33.25
2019-03-30T08:59:24.438Z,32.42
2019-03-30T09:01:59.340Z,29.42
2019-03-30T09:04:33.025Z,33.10
2019-03-30T09:07:16.031Z,26.10
2019-03-30T09:09:49.802Z,28.85
2019-03-30T09:12:25.174Z,23.07
2019-03-30T09:14:59.043Z,21.30
2019-03-30T09:17:37.153Z,18.42
2019-03-30T09:20:15.100Z,25.17
2019-03-30T09:22:49.160Z,28.45
2019-03-30T09:25:22.774Z,23.95
2019-03-30T09:27:56.353Z,32.35
2019-03-30T09:30:30.950Z,32.25
2019-03-30T09:33:04.736Z,31.33
2019-03-30T09:35:38.450Z,30.25
2019-03-30T09:38:14.784Z,32.15
2019-03-30T09:40:47.771Z,23.50
2019-03-30T09:43:23.533Z,25.52
2019-03-30T09:45:57.497Z,32.03
2019-03-30T09:48:34.343Z,29.18
2019-03-30T09:51:12.142Z,25.88
2019-03-30T09:53:49.150Z,32.93
2019-03-30T09:56:24.094Z,30.02
2019-03-30T09:59:05.472Z,30.30
2019-03-30T10:01:39.201Z,27.65
2019-03-30T10:04:12.999Z,31.62
2019-03-30T10:06:46.726Z,26.20
2019-03-30T10:09:22.401Z,28.17
2019-03-30T10:11:58.868Z,28.20
2019-03-30T10:14:32.964Z,29.90
2019-03-30T10:17:07.773Z,64.37
2019-03-30T10:19:41.412Z,32.83
2019-03-30T10:22:16.569Z,30.35
2019-03-30T10:24:52.072Z,30.40
2019-03-30T10:27:26.087Z,23.67
2019-03-30T10:30:09.198Z,29.67
2019-03-30T10:32:42.929Z,33.78
2019-03-30T10:35:20.410Z,30.97
2019-03-30T10:37:54.436Z,28.55
2019-03-30T10:40:28.197Z,31.02
2019-03-30T10:43:05.311Z,34.78
2019-03-30T10:45:41.889Z,28.98
2019-03-30T10:48:19.860Z,31.02
2019-03-30T10:50:53.754Z,30.80
2019-03-30T10:53:28.248Z,31.37
2019-03-30T10:56:01.982Z,30.23
2019-03-30T10:58:37.296Z,33.90
2019-03-30T11:01:12.846Z,25.88
2019-03-30T11:03:46.560Z,30.95
2019-03-30T11:06:20.326Z,26.25
2019-03-30T11:08:56.879Z,29.92
2019-03-30T11:11:30.833Z,36.03
2019-03-30T11:14:07.749Z,36.85
2019-03-30T11:16:46.559Z,30.68
2019-03-30T11:19:20.645Z,30.70
2019-03-30T11:21:57.744Z,30.45
2019-03-30T11:24:33.217Z,32.48
2019-03-30T11:27:07.287Z,30.75
2019-03-30T11:29:41.716Z,29.30
2019-03-30T11:32:28.354Z,32.95
2019-03-30T11:35:08.443Z,35.92
2019-03-30T11:37:43.025Z,35.13
2019-03-30T11:40:21.186Z,38.05
2019-03-30T11:42:59.203Z,36.77
2019-03-30T11:45:35.905Z,30.55
2019-03-30T11:48:11.267Z,31.42
2019-03-30T11:50:44.949Z,38.13
2019-03-30T11:53:18.881Z,37.17
2019-03-30T11:55:52.870Z,34.23
2019-03-30T11:58:26.575Z,27.80
2019-03-30T12:01:00.902Z,35.92
2019-03-30T12:03:34.740Z,37.70
2019-03-30T12:06:10.588Z,34.48
2019-03-30T12:08:45.711Z,37.95
2019-03-30T12:11:20.016Z,26.35
2019-03-30T12:13:54.018Z,33.10
2019-03-30T12:16:28.591Z,36.60
2019-03-30T12:19:02.672Z,30.82
2019-03-30T12:21:36.523Z,34.05
2019-03-30T12:24:10.276Z,34.83
2019-03-30T12:26:44.055Z,31.45
2019-03-30T12:29:17.909Z,31.62
2019-03-30T12:31:51.615Z,40.30
2019-03-30T12:34:25.341Z,35.33
2019-03-30T12:36:59.009Z,34.88
2019-03-30T12:39:32.813Z,38.95
2019-03-30T12:42:06.490Z,32.05
2019-03-30T12:44:40.257Z,39.10
2019-03-30T12:47:14.560Z,34.98
2019-03-30T12:49:48.236Z,41.18
2019-03-30T12:52:22.046Z,27.40
2019-03-30T12:54:55.643Z,35.65
2019-03-30T12:57:29.393Z,37.73
2019-03-30T13:00:02.995Z,35.58
2019-03-30T13:02:36.754Z,42.83
2019-03-30T13:05:10.538Z,35.30
2019-03-30T13:07:44.405Z,40.40
2019-03-30T13:10:19.539Z,34.43
2019-03-30T13:12:53.297Z,34.18
2019-03-30T13:15:26.947Z,42.00
2019-03-30T13:18:00.601Z,34.75
2019-03-30T13:20:34.397Z,37.15
2019-03-30T13:23:08.049Z,35.08
2019-03-30T13:25:41.733Z,41.20
2019-03-30T13:28:15.687Z,30.57
2019-03-30T13:30:49.325Z,38.40
2019-03-30T13:33:23.023Z,40.35
2019-03-30T13:35:56.930Z,40.10
2019-03-30T13:38:30.767Z,34.98
2019-03-30T13:41:04.710Z,31.07
2019-03-30T13:43:38.353Z,37.23
2019-03-30T13:46:12.115Z,34.70
2019-03-30T13:48:45.914Z,34.38
2019-03-30T13:51:19.543Z,32.80
2019-03-30T13:53:53.252Z,41.33
2019-03-30T13:56:26.982Z,39.70
2019-03-30T13:59:00.818Z,34.30
2019-03-30T14:01:34.562Z,35.35
2019-03-30T14:04:08.199Z,39.58
2019-03-30T14:06:41.977Z,46.60
2019-03-30T14:09:17.351Z,27.73
2019-03-30T14:11:51.135Z,33.30
2019-03-30T14:14:24.750Z,29.67
2019-03-30T14:16:58.658Z,31.37
2019-03-30T14:19:32.348Z,35.35
2019-03-30T14:22:06.044Z,38.92
2019-03-30T14:24:46.644Z,34.35
2019-03-30T14:27:20.266Z,29.80
2019-03-30T14:29:54.497Z,26.80
2019-03-30T14:32:28.247Z,26.48
2019-03-30T14:35:01.895Z,30.85
2019-03-30T14:37:35.524Z,35.08
2019-03-30T14:40:10.707Z,25.30
2019-03-30T14:42:45.509Z,30.37
2019-03-30T14:45:19.556Z,30.48
2019-03-30T14:47:53.358Z,25.50
2019-03-30T14:50:28.066Z,27.75
2019-03-30T14:53:02.018Z,30.80
2019-03-30T14:55:39.312Z,26.97
2019-03-30T14:58:11.101Z,28.52
2019-03-30T15:00:44.861Z,28.00
2019-03-30T15:03:18.539Z,24.57
2019-03-30T15:05:52.202Z,25.52
2019-03-30T15:08:25.977Z,23.52
2019-03-30T15:10:59.867Z,30.57
2019-03-30T15:13:33.552Z,28.55
2019-03-30T15:16:08.302Z,24.45
2019-03-30T15:18:44.422Z,22.80
2019-03-30T15:21:18.205Z,26.93
2019-03-30T15:23:51.883Z,25.02
2019-03-30T15:26:25.559Z,22.67
2019-03-30T15:28:59.287Z,21.07
2019-03-30T15:31:32.909Z,18.80
2019-03-30T15:34:06.536Z,22.55
2019-03-30T15:36:40.305Z,26.52
2019-03-30T15:39:14.023Z,27.13
2019-03-30T15:41:47.729Z,24.30
2019-03-30T15:44:21.443Z,22.98
2019-03-30T15:46:56.571Z,22.87
2019-03-30T15:49:30.208Z,18.92
2019-03-30T15:52:13.869Z,23.40
2019-03-30T15:54:39.316Z,26.68
2019-03-30T15:57:14.551Z,26.15
2019-03-30T15:59:48.435Z,26.42
2019-03-30T16:02:22.002Z,21.62
2019-03-30T16:04:55.662Z,22.62
2019-03-30T16:07:31.043Z,22.10
2019-03-30T16:10:04.729Z,22.52
2019-03-30T16:12:38.326Z,20.55
2019-03-30T16:15:12.114Z,21.55
2019-03-30T16:17:45.835Z,21.85
2019-03-30T16:20:19.619Z,20.45
2019-03-30T16:22:53.303Z,21.90
2019-03-30T16:25:29.457Z,19.73
2019-03-30T16:28:03.102Z,17.80
2019-03-30T16:30:36.848Z,16.80
2019-03-30T16:33:10.528Z,20.10
2019-03-30T16:35:44.291Z,20.27
2019-03-30T16:38:17.969Z,19.77
2019-03-30T16:40:51.613Z,23.92
2019-03-30T16:43:25.212Z,28.75
2019-03-30T16:45:59.040Z,28.50
2019-03-30T16:48:33.127Z,28.30
2019-03-30T16:51:06.878Z,30.45
2019-03-30T16:53:40.553Z,43.85
2019-03-30T16:56:14.297Z,42.08
2019-03-30T16:58:48.011Z,55.92
2019-03-30T17:01:21.776Z,50.17
2019-03-30T17:03:55.391Z,71.33
2019-03-30T17:06:30.199Z,79.17
2019-03-30T17:09:05.219Z,68.12
2019-03-30T17:11:39.218Z,67.82
2019-03-30T17:14:13.024Z,63.48
2019-03-30T17:16:49.043Z,73.37
2019-03-30T17:19:23.043Z,55.25
2019-03-30T17:21:56.737Z,58.38
2019-03-30T17:24:30.807Z,81.60
2019-03-30T17:27:04.542Z,98.35
2019-03-30T17:29:38.404Z,119.13
2019-03-30T17:32:12.200Z,109.52
2019-03-30T17:34:45.997Z,104.83
2019-03-30T17:37:19.740Z,107.20
2019-03-30T17:39:53.753Z,86.60
2019-03-30T17:42:27.456Z,78.20
2019-03-30T17:45:02.219Z,71.22
2019-03-30T17:47:37.040Z,68.35
2019-03-30T17:50:12.819Z,61.42
2019-03-30T17:52:46.528Z,55.52
2019-03-30T17:55:33.014Z,60.75
2019-03-30T17:57:55.876Z,72.62
2019-03-30T18:00:29.948Z,67.08
2019-03-30T18:03:03.898Z,70.87
2019-03-30T18:05:37.765Z,74.25
2019-03-30T18:08:12.823Z,65.40
2019-03-30T18:10:46.634Z,66.80
2019-03-30T18:13:20.390Z,70.20
2019-03-30T18:15:54.124Z,77.27
2019-03-30T18:18:27.814Z,83.95
2019-03-30T18:21:01.615Z,91.17
2019-03-30T18:23:35.373Z,91.87
2019-03-30T18:26:10.696Z,112.90
2019-03-30T18:28:44.508Z,111.03
2019-03-30T18:31:19.068Z,137.47
2019-03-30T18:33:53.157Z,127.60
2019-03-30T18:36:27.911Z,176.82
2019-03-30T18:39:09.505Z,149.15
2019-03-30T18:41:39.074Z,154.68
2019-03-30T18:44:12.781Z,167.77
2019-03-30T18:46:46.559Z,168.00
2019-03-30T18:49:20.287Z,162.35
2019-03-30T18:51:54.783Z,202.28
2019-03-30T18:54:28.606Z,225.93
2019-03-30T18:57:02.618Z,199.35
2019-03-30T18:59:36.433Z,180.03
2019-03-30T19:02:10.200Z,250.60
2019-03-30T19:04:43.981Z,270.17
2019-03-30T19:07:17.802Z,273.90
2019-03-30T19:09:57.901Z,269.02
2019-03-30T19:12:36.901Z,244.75
2019-03-30T19:15:11.603Z,208.07
2019-03-30T19:17:46.230Z,248.93
2019-03-30T19:20:21.799Z,232.50
2019-03-30T19:22:55.872Z,201.35
2019-03-30T19:25:30.997Z,183.95
2019-03-30T19:28:05.908Z,183.00
2019-03-30T19:30:42.219Z,183.45
2019-03-30T19:33:15.489Z,174.32
2019-03-30T19:35:49.441Z,163.32
2019-03-30T19:38:23.480Z,183.80
2019-03-30T19:40:57.577Z,186.30
2019-03-30T19:43:32.044Z,182.50
2019-03-30T19:46:26.740Z,173.28
2019-03-30T19:49:10.178Z,174.82
2019-03-30T19:51:54.618Z,158.03
2019-03-30T19:54:32.747Z,154.10
2019-03-30T19:57:07.146Z,152.97
2019-03-30T19:59:41.020Z,146.62
2019-03-30T20:02:15.595Z,152.00
2019-03-30T20:04:49.942Z,135.52
2019-03-30T20:07:29.945Z,118.75
2019-03-30T20:10:04.356Z,148.25
2019-03-30T20:12:38.945Z,140.68
2019-03-30T20:15:41.761Z,145.95
2019-03-30T20:18:16.511Z,133.82
2019-03-30T20:20:50.783Z,127.78
2019-03-30T20:23:27.433Z,131.37
2019-03-30T20:26:01.628Z,121.30
2019-03-30T20:28:36.275Z,134.80
2019-03-30T20:31:10.773Z,122.35
2019-03-30T20:33:46.723Z,119.05
2019-03-30T20:36:21.005Z,135.48
2019-03-30T20:38:55.124Z,126.27
2019-03-30T20:41:29.336Z,126.47
2019-03-30T20:44:03.442Z,141.40
2019-03-30T20:46:37.524Z,138.52
2019-03-30T20:49:11.584Z,139.43
2019-03-30T20:51:46.021Z,133.35
2019-03-30T20:54:20.203Z,144.40
2019-03-30T20:56:54.590Z,126.82
2019-03-30T20:59:39.263Z,130.10
2019-03-30T21:02:12.925Z,127.82
2019-03-30T21:04:51.920Z,121.90
2019-03-30T21:07:26.058Z,154.38
2019-03-30T21:10:01.535Z,164.00
2019-03-30T21:12:35.346Z,160.57
2019-03-30T21:15:09.796Z,152.45
2019-03-30T21:17:43.754Z,151.30
2019-03-30T21:20:17.677Z,164.52
2019-03-30T21:22:53.360Z,153.25
2019-03-30T21:25:27.248Z,144.97
2019-03-30T21:28:02.606Z,149.62
2019-03-30T21:30:37.304Z,158.05
2019-03-30T21:33:12.590Z,155.32
2019-03-30T21:35:46.725Z,144.28
2019-03-30T21:38:20.640Z,151.97
2019-03-30T21:40:57.016Z,160.40
2019-03-30T21:43:30.879Z,148.60
2019-03-30T21:46:04.816Z,146.37
2019-03-30T21:48:38.718Z,142.62
2019-03-30T21:51:12.395Z,156.02
2019-03-30T21:53:48.167Z,165.92
2019-03-30T21:56:22.096Z,185.45
2019-03-30T21:58:58.329Z,183.50
2019-03-30T22:01:34.154Z,222.17
2019-03-30T22:04:07.877Z,217.97
2019-03-30T22:06:41.935Z,200.95
2019-03-30T22:09:15.842Z,194.05
2019-03-30T22:11:49.852Z,206.32
2019-03-30T22:14:23.773Z,206.02
2019-03-30T22:16:57.691Z,188.05
2019-03-30T22:19:31.493Z,279.38
2019-03-30T22:22:05.177Z,233.05
2019-03-30T22:24:38.995Z,187.03
2019-03-30T22:27:12.887Z,190.43
2019-03-30T22:29:48.190Z,177.78
2019-03-30T22:32:21.958Z,167.62
2019-03-30T22:34:55.707Z,163.03
2019-03-30T22:37:29.515Z,157.82
2019-03-30T22:40:03.228Z,148.80
2019-03-30T22:42:36.900Z,145.30
2019-03-30T22:45:10.887Z,151.15
2019-03-30T22:47:44.697Z,146.57
2019-03-30T22:50:18.572Z,142.90
2019-03-30T22:52:52.259Z,148.97
2019-03-30T22:55:26.156Z,151.15
2019-03-30T22:58:00.213Z,148.13
2019-03-30T23:00:51.589Z,144.93
2019-03-30T23:03:25.728Z,139.85
2019-03-30T23:05:59.968Z,148.50
2019-03-30T23:08:33.683Z,149.45
2019-03-30T23:11:07.324Z,159.25
2019-03-30T23:13:41.053Z,163.10
2019-03-30T23:16:14.870Z,158.45
2019-03-30T23:18:48.626Z,159.67
2019-03-30T23:21:22.509Z,164.40
2019-03-30T23:23:56.752Z,169.90
2019-03-30T23:26:30.488Z,160.18
2019-03-30T23:29:04.240Z,170.22
2019-03-30T23:31:38.013Z,168.55
2019-03-30T23:34:11.793Z,178.50
2019-03-30T23:36:45.537Z,176.75
2019-03-30T23:39:19.328Z,169.55
2019-03-30T23:41:53.184Z,158.47
2019-03-30T23:44:26.943Z,163.00
2019-03-30T23:47:00.706Z,154.70
2019-03-30T23:49:34.616Z,159.85
2019-03-30T23:52:08.321Z,166.90
2019-03-30T23:54:42.015Z,169.07
2019-03-30T23:57:15.981Z,162.70
2019-03-30T23:59:49.689Z,157.80
